This is the latest recevied weather packets stored in our database for station/object N2MLB-WX. If no packets are shown the sender has not sent any weather packets the latest 1 day(s).
| Time | Temp. | Humidity | Pressure | Rain* | Wind** | Luminosity | Snow |
|---|---|---|---|---|---|---|---|
| 1777984039 | 20° C | 57% | 998 hPa | 0 mm | 2.24 m/s, 102° | 39 W/m² | - |
| 1777983743 | 20° C | 58% | 998 hPa | 0 mm | 2.68 m/s, 241° | 35 W/m² | - |
| 1777983439 | 19.44° C | 60% | 998 hPa | 0 mm | 0.45 m/s, 120° | 28 W/m² | - |
| 1777983139 | 20° C | 58% | 998 hPa | 0 mm | 1.34 m/s, 68° | 25 W/m² | - |
| 1777982841 | 19.44° C | 60% | 998 hPa | 0 mm | 1.79 m/s, 140° | 29 W/m² | - |
| 1777982539 | 19.44° C | 60% | 998 hPa | 0 mm | 3.58 m/s, 219° | 20 W/m² | - |
| 1777982239 | 19.44° C | 59% | 997 hPa | 0 mm | 2.68 m/s, 274° | 17 W/m² | - |
| 1777981939 | 18.89° C | 60% | 997 hPa | 0 mm | 2.24 m/s, 77° | 17 W/m² | - |
| 1777981639 | 19.44° C | 59% | 997 hPa | 0 mm | 2.68 m/s, 101° | 17 W/m² | - |
| 1777981340 | 18.89° C | 61% | 997 hPa | 0 mm | 0.89 m/s, 182° | 17 W/m² | - |
| 1777981039 | 19.44° C | 62% | 997 hPa | 0 mm | 1.79 m/s, 321° | 15 W/m² | - |
| 1777980739 | 19.44° C | 60% | 997 hPa | 0 mm | 3.58 m/s, 126° | 15 W/m² | - |
| 1777980439 | 19.44° C | 60% | 997 hPa | 0 mm | 1.79 m/s, 98° | 16 W/m² | - |
| 1777980139 | 18.89° C | 61% | 997 hPa | 0 mm | 2.24 m/s, 209° | 16 W/m² | - |
| 1777979840 | 18.89° C | 61% | 997 hPa | 0 mm | 0.45 m/s, 248° | 13 W/m² | - |
| 1777979539 | 18.89° C | 62% | 997 hPa | 0.25 mm | 0.89 m/s, 71° | 10 W/m² | - |
| 1777979240 | 18.89° C | 61% | 997 hPa | 0.51 mm | 1.79 m/s, 73° | 7 W/m² | - |
| 1777978939 | 18.33° C | 63% | 997 hPa | 0.76 mm | 3.58 m/s, 14° | 9 W/m² | - |
| 1777978640 | 18.89° C | 61% | 997 hPa | 1.27 mm | 4.92 m/s, 240° | 8 W/m² | - |
| 1777978340 | 18.89° C | 62% | 997 hPa | 2.03 mm | 2.24 m/s, 183° | 9 W/m² | - |
| 1777978040 | 18.33° C | 65% | 997 hPa | 0 mm | 1.34 m/s, 221° | 7 W/m² | - |
| 1777977740 | 18.33° C | 64% | 997 hPa | 0 mm | 0.89 m/s, 227° | 6 W/m² | - |
| 1777977443 | 17.78° C | 66% | 997 hPa | 0 mm | 2.68 m/s, 216° | 4 W/m² | - |
| 1777977139 | 17.78° C | 65% | 997 hPa | 0 mm | 1.79 m/s, 105° | 3 W/m² | - |
| 1777976840 | 17.78° C | 66% | 997 hPa | 0 mm | 0.89 m/s, 118° | 2 W/m² | - |
* Rain latest hour (hover to see other rain measurements)
** Current wind speed in m/s (hover to see current wind gust speed)